Time;durP1;ratioP1;P1;durP2;ratioP2;P2;SDS_P1;SDS_P2;PMS_P1;PMS_P2;Temp;Humidity;BMP_temperature;BMP_pressure;BME280_temperature;BME280_humidity;BME280_pressure;Samples;Min_cycle;Max_cycle;Signal;HPM_P1;HPM_P2
2021/06/08 00:03:41;;;;;;;23.87;14.93;;;;;;;13.22;100.00;94853.34;10401472;28;20815;-81
2021/06/08 00:08:41;;;;;;;21.27;14.10;;;;;;;13.04;100.00;94838.69;10398636;28;20280;-80
2021/06/08 00:13:42;;;;;;;30.83;15.23;;;;;;;13.15;100.00;94848.28;10399901;28;20083;-81
2021/06/08 00:18:42;;;;;;;32.08;15.35;;;;;;;13.02;100.00;94840.88;10400467;28;20276;-81
2021/06/08 00:23:43;;;;;;;40.13;15.65;;;;;;;13.00;100.00;94840.34;10399418;28;20045;-81
2021/06/08 00:28:43;;;;;;;26.25;15.63;;;;;;;12.77;100.00;94834.66;10407658;28;20046;-81
2021/06/08 00:33:44;;;;;;;27.80;16.10;;;;;;;12.89;100.00;94833.44;10409114;28;20528;-82
2021/06/08 00:38:44;;;;;;;30.17;17.67;;;;;;;12.91;100.00;94828.59;10409383;28;20264;-82
2021/06/08 00:43:44;;;;;;;31.00;16.13;;;;;;;12.94;100.00;94819.94;10408090;28;20040;-81
2021/06/08 00:48:45;;;;;;;23.80;15.67;;;;;;;12.80;100.00;94820.59;10408917;28;20099;-81
2021/06/08 00:53:45;;;;;;;26.87;16.03;;;;;;;12.81;100.00;94816.00;10408856;28;20035;-81
2021/06/08 00:58:45;;;;;;;30.93;15.27;;;;;;;12.81;100.00;94819.50;10408726;28;20100;-81
2021/06/08 01:03:46;;;;;;;23.80;16.17;;;;;;;12.83;100.00;94816.53;10410886;28;20029;-81
2021/06/08 01:08:47;;;;;;;28.50;16.93;;;;;;;12.88;100.00;94813.78;10411248;28;20035;-81
2021/06/08 01:13:47;;;;;;;23.75;14.32;;;;;;;12.91;100.00;94810.50;10410260;28;20028;-81
2021/06/08 01:18:48;;;;;;;21.20;12.27;;;;;;;12.75;100.00;94799.06;10410114;28;20097;-81
2021/06/08 01:23:49;;;;;;;21.70;13.25;;;;;;;12.73;100.00;94797.75;10398958;28;20041;-81
2021/06/08 01:28:51;;;;;;;23.25;14.25;;;;;;;12.76;100.00;94791.78;10402569;28;20492;-81
2021/06/08 01:33:52;;;;;;;22.88;16.15;;;;;;;12.79;100.00;94793.91;10406767;28;20033;-82
2021/06/08 01:38:54;;;;;;;19.35;13.75;;;;;;;12.70;100.00;94801.81;10408831;28;20095;-81
2021/06/08 01:43:54;;;;;;;19.58;13.20;;;;;;;12.60;100.00;94789.25;10414117;28;20029;-81
2021/06/08 01:48:55;;;;;;;19.85;13.40;;;;;;;12.50;100.00;94783.94;10414789;28;20037;-78
2021/06/08 01:54:11;;;;;;;22.52;14.35;;;;;;;12.35;100.00;94784.06;10414140;28;20030;-78
2021/06/08 01:59:29;;;;;;;19.95;13.63;;;;;;;12.17;100.00;94796.34;10414500;28;20754;-81
2021/06/08 02:04:44;;;;;;;25.02;16.73;;;;;;;12.13;100.00;94809.59;10418170;28;20037;-82
2021/06/08 02:09:58;;;;;;;24.63;17.08;;;;;;;12.11;100.00;94809.03;10415505;28;20068;-81
2021/06/08 02:15:11;;;;;;;28.42;17.65;;;;;;;12.16;100.00;94810.91;10444627;28;20029;-82
2021/06/08 02:20:22;;;;;;;31.45;19.48;;;;;;;12.28;100.00;94811.38;10453324;28;20108;-82
2021/06/08 02:25:26;;;;;;;67.70;22.10;;;;;;;12.10;100.00;94816.34;10458182;28;20041;-81
2021/06/08 02:30:29;;;;;;;44.03;23.15;;;;;;;12.06;100.00;94820.66;10455718;28;20078;-81
2021/06/08 02:35:30;;;;;;;52.38;24.52;;;;;;;12.03;100.00;94823.94;10454990;28;20074;-81
2021/06/08 02:40:32;;;;;;;55.05;22.27;;;;;;;12.10;100.00;94834.41;10451920;28;20036;-81
2021/06/08 02:45:33;;;;;;;48.45;23.25;;;;;;;12.16;100.00;94843.25;10451622;28;20507;-82
2021/06/08 02:50:34;;;;;;;56.50;24.15;;;;;;;12.10;100.00;94832.50;10455316;28;20033;-81
2021/06/08 02:55:34;;;;;;;42.65;22.23;;;;;;;12.19;100.00;94831.91;10454176;28;20101;-81
2021/06/08 03:00:35;;;;;;;44.95;23.65;;;;;;;12.10;100.00;94835.19;10452164;28;20083;-81
2021/06/08 03:05:42;;;;;;;54.40;24.40;;;;;;;12.11;100.00;94836.81;10452327;28;20036;-81
2021/06/08 03:10:45;;;;;;;49.15;25.67;;;;;;;12.31;100.00;94851.22;10454579;28;20029;-81
2021/06/08 03:15:59;;;;;;;48.92;25.02;;;;;;;12.30;100.00;94842.31;10453508;28;20024;-81
2021/06/08 03:21:06;;;;;;;51.22;24.42;;;;;;;12.30;100.00;94845.00;10451571;28;20060;-81
2021/06/08 03:26:08;;;;;;;29.85;17.05;;;;;;;12.25;100.00;94838.84;10453147;28;20541;-81
2021/06/08 03:31:10;;;;;;;32.65;16.70;;;;;;;12.23;100.00;94827.56;10455298;28;20419;-81
2021/06/08 03:36:12;;;;;;;26.40;15.85;;;;;;;12.23;100.00;94832.94;10455324;28;20101;-80
2021/06/08 03:41:13;;;;;;;21.42;13.30;;;;;;;12.04;100.00;94835.50;10453650;28;20166;-81
2021/06/08 03:46:14;;;;;;;23.05;16.13;;;;;;;12.02;100.00;94835.78;10453698;28;20480;-83
2021/06/08 03:51:17;;;;;;;22.15;14.68;;;;;;;12.15;100.00;94847.81;10454815;28;20052;-82
2021/06/08 03:56:17;;;;;;;23.23;16.05;;;;;;;12.13;100.00;94845.41;10454330;28;20045;-82
2021/06/08 04:01:19;;;;;;;18.75;12.93;;;;;;;12.18;100.00;94851.84;10454462;28;20654;-82
2021/06/08 04:06:20;;;;;;;29.00;14.05;;;;;;;12.21;100.00;94849.41;10453144;28;20104;-82
2021/06/08 04:11:21;;;;;;;23.55;12.55;;;;;;;12.31;100.00;94849.31;10453723;28;20067;-82
2021/06/08 04:16:22;;;;;;;17.10;12.10;;;;;;;12.48;100.00;94851.59;10453654;28;20052;-82
2021/06/08 04:21:24;;;;;;;26.70;12.82;;;;;;;12.86;100.00;94848.31;10452950;28;20029;-82
2021/06/08 04:26:26;;;;;;;21.92;12.27;;;;;;;13.41;100.00;94839.13;10452440;28;20041;-82
2021/06/08 04:31:27;;;;;;;19.85;11.75;;;;;;;13.63;100.00;94825.91;10440654;28;20033;-82
2021/06/08 04:36:27;;;;;;;34.83;17.23;;;;;;;13.53;100.00;94836.81;10448352;28;20477;-82
2021/06/08 04:41:28;;;;;;;33.63;16.23;;;;;;;13.35;100.00;94830.28;10450403;28;20035;-82
2021/06/08 04:46:28;;;;;;;32.57;16.37;;;;;;;13.31;100.00;94837.31;10451755;28;20055;-81
2021/06/08 04:51:29;;;;;;;27.52;15.90;;;;;;;13.41;100.00;94842.66;10450324;28;20340;-86
2021/06/08 04:56:29;;;;;;;26.70;16.70;;;;;;;13.75;100.00;94854.38;10450297;28;20016;-82
2021/06/08 05:01:38;;;;;;;30.57;15.10;;;;;;;14.47;100.00;94850.63;10450043;28;20021;-82
2021/06/08 05:06:51;;;;;;;23.58;13.73;;;;;;;15.43;100.00;94830.28;10451492;28;20276;-82
2021/06/08 05:11:55;;;;;;;18.10;12.00;;;;;;;16.27;100.00;94832.88;10451556;28;20029;-82
2021/06/08 05:16:57;;;;;;;16.30;11.45;;;;;;;17.40;100.00;94832.78;10450442;28;20009;-82
2021/06/08 05:21:59;;;;;;;25.65;13.25;;;;;;;18.24;100.00;94828.19;10451490;28;20431;-83
2021/06/08 05:27:00;;;;;;;18.55;12.10;;;;;;;18.48;100.00;94843.25;10451328;28;20397;-83
2021/06/08 05:32:00;;;;;;;24.23;14.07;;;;;;;17.16;100.00;94833.94;10450260;28;20222;-82
2021/06/08 05:37:11;;;;;;;26.45;16.33;;;;;;;16.91;100.00;94838.97;10448269;28;20474;-81
2021/06/08 05:42:18;;;;;;;24.85;17.00;;;;;;;16.56;100.00;94843.31;10449271;28;20029;-81
2021/06/08 05:47:19;;;;;;;21.80;16.45;;;;;;;17.46;100.00;94833.47;10452762;28;20032;-81
2021/06/08 05:52:20;;;;;;;30.20;18.65;;;;;;;17.78;100.00;94832.28;10448809;28;20028;-81
2021/06/08 05:57:22;;;;;;;25.42;17.65;;;;;;;17.28;100.00;94833.38;10448969;28;20035;-81
2021/06/08 06:02:24;;;;;;;31.27;20.13;;;;;;;17.39;100.00;94829.28;10449804;28;20056;-81
2021/06/08 06:07:25;;;;;;;58.78;22.90;;;;;;;17.30;100.00;94833.06;10449335;28;20796;-81
2021/06/08 06:12:26;;;;;;;35.05;22.05;;;;;;;17.65;100.00;94841.34;10449885;28;20124;-80
2021/06/08 06:17:31;;;;;;;28.10;17.67;;;;;;;18.98;100.00;94828.31;10448569;28;20427;-80
2021/06/08 06:22:34;;;;;;;32.78;18.83;;;;;;;17.97;100.00;94836.66;10449150;28;20035;-80
2021/06/08 06:27:35;;;;;;;39.60;19.95;;;;;;;18.44;100.00;94828.66;10446002;28;20122;-79
2021/06/08 06:32:37;;;;;;;36.33;19.23;;;;;;;19.24;100.00;94830.16;10454422;28;20067;-80
2021/06/08 06:37:39;;;;;;;32.35;18.95;;;;;;;19.87;100.00;94824.09;10455216;28;20103;-80
2021/06/08 06:42:46;;;;;;;33.08;17.85;;;;;;;20.07;100.00;94823.34;10448334;28;20029;-80
2021/06/08 06:47:47;;;;;;;28.42;16.98;;;;;;;20.92;100.00;94815.13;10449381;28;20342;-80
2021/06/08 06:52:55;;;;;;;28.90;15.95;;;;;;;22.52;100.00;94809.66;10451939;28;20060;-80
2021/06/08 06:57:56;;;;;;;32.97;14.93;;;;;;;24.77;100.00;94804.88;10453329;28;20086;-80
2021/06/08 07:02:59;;;;;;;21.08;13.98;;;;;;;26.43;83.80;94789.94;10453059;28;20461;-80
2021/06/08 07:08:03;;;;;;;20.70;12.43;;;;;;;27.78;70.50;94785.44;10452947;28;20459;-80
2021/06/08 07:13:06;;;;;;;21.63;13.48;;;;;;;28.31;60.24;94788.94;10451075;28;20025;-80
2021/06/08 07:18:09;;;;;;;20.60;12.73;;;;;;;29.28;52.18;94781.03;10450123;28;20714;-80
2021/06/08 07:23:16;;;;;;;18.20;12.70;;;;;;;29.37;52.21;94763.25;10451599;28;20041;-80
2021/06/08 07:28:18;;;;;;;19.15;12.77;;;;;;;28.72;52.33;94774.94;10455697;28;20052;-80
2021/06/08 07:33:33;;;;;;;18.90;12.65;;;;;;;28.70;55.66;94771.00;10451401;28;20029;-80
2021/06/08 07:38:40;;;;;;;15.13;9.68;;;;;;;27.44;61.39;94766.22;10449946;28;20523;-80
2021/06/08 07:43:46;;;;;;;29.83;14.43;;;;;;;26.29;76.04;94769.66;10450931;28;20021;-80
2021/06/08 07:48:51;;;;;;;22.70;14.32;;;;;;;25.80;79.16;94772.13;10452426;28;20028;-80
2021/06/08 07:53:52;;;;;;;23.45;12.82;;;;;;;26.87;74.48;94774.72;10448920;28;20044;-79
2021/06/08 07:58:53;;;;;;;25.83;12.70;;;;;;;27.83;63.72;94764.16;10449510;28;20103;-80
2021/06/08 08:03:54;;;;;;;25.05;11.10;;;;;;;29.55;53.08;94771.59;10452032;28;20029;-80
2021/06/08 08:08:54;;;;;;;18.58;9.85;;;;;;;30.84;46.02;94773.34;10450807;28;20622;-80
2021/06/08 08:13:56;;;;;;;15.75;8.23;;;;;;;31.80;43.27;94767.59;10453267;28;20033;-80
2021/06/08 08:18:58;;;;;;;4.90;4.03;;;;;;;32.78;39.88;94759.84;10451891;28;20033;-80
2021/06/08 08:23:59;;;;;;;12.60;5.38;;;;;;;32.35;39.82;94760.34;10451731;28;20041;-81
2021/06/08 08:29:00;;;;;;;9.50;4.60;;;;;;;33.08;36.71;94755.47;10450916;28;20064;-80
2021/06/08 08:34:01;;;;;;;10.68;5.47;;;;;;;33.44;38.28;94756.97;10450790;28;20267;-80
2021/06/08 08:39:01;;;;;;;14.68;6.18;;;;;;;32.43;38.32;94745.16;10445856;28;20515;-80
2021/06/08 08:44:03;;;;;;;8.87;4.80;;;;;;;34.07;35.41;94751.53;10448689;28;20033;-81
2021/06/08 08:49:05;;;;;;;9.13;4.88;;;;;;;35.05;35.02;94730.13;10449610;28;20025;-81
2021/06/08 08:54:05;;;;;;;8.70;4.97;;;;;;;35.03;33.22;94732.56;10449291;28;20103;-80
2021/06/08 08:59:12;;;;;;;11.30;5.05;;;;;;;35.07;33.29;94722.88;10449203;28;20481;-80
2021/06/08 09:04:14;;;;;;;6.10;4.68;;;;;;;35.45;32.70;94710.47;10447555;28;20028;-81
2021/06/08 09:09:14;;;;;;;7.55;4.88;;;;;;;34.83;33.45;94702.69;10448812;28;20021;-80
2021/06/08 09:14:16;;;;;;;10.00;5.40;;;;;;;35.14;33.78;94702.38;10449365;28;20028;-80
2021/06/08 09:19:16;;;;;;;13.23;5.53;;;;;;;35.91;33.57;94697.34;10448383;28;20024;-81
2021/06/08 09:24:27;;;;;;;10.73;4.50;;;;;;;34.11;32.01;94686.56;10448718;28;20035;-81
2021/06/08 09:29:32;;;;;;;5.63;3.75;;;;;;;35.50;31.84;94678.41;10447891;28;20037;-81
2021/06/08 09:34:34;;;;;;;3.97;3.13;;;;;;;35.82;31.19;94668.44;10449115;28;20060;-81
2021/06/08 09:39:35;;;;;;;8.18;3.17;;;;;;;34.82;32.46;94675.97;10443397;28;20116;-81
2021/06/08 09:44:35;;;;;;;9.45;3.45;;;;;;;34.33;33.34;94665.44;10443951;28;20025;-81
2021/06/08 09:49:38;;;;;;;5.27;3.37;;;;;;;34.52;31.08;94657.47;10438500;28;20734;-81
2021/06/08 09:54:42;;;;;;;2.88;2.60;;;;;;;35.31;32.12;94647.34;10445258;28;20863;-80
2021/06/08 09:59:57;;;;;;;7.83;5.10;;;;;;;36.96;27.84;94637.66;10444181;28;20055;-79
2021/06/08 10:05:14;;;;;;;10.10;4.43;;;;;;;37.61;29.09;94637.13;10452018;28;20095;-78
2021/06/08 10:10:18;;;;;;;10.15;4.97;;;;;;;35.62;28.89;94635.78;10450628;28;20032;-80
2021/06/08 10:15:18;;;;;;;10.10;4.35;;;;;;;35.42;31.16;94628.28;10451543;28;20876;-79
2021/06/08 10:20:22;;;;;;;8.93;5.13;;;;;;;36.61;29.13;94625.03;10453655;28;20021;-80
2021/06/08 10:25:23;;;;;;;4.85;4.35;;;;;;;33.83;31.39;94625.34;10451266;28;20532;-80
2021/06/08 10:30:24;;;;;;;8.02;4.28;;;;;;;34.62;30.08;94627.75;10454857;28;20086;-79
2021/06/08 10:35:25;;;;;;;4.40;3.20;;;;;;;36.20;28.06;94620.25;10453997;28;20021;-80
2021/06/08 10:40:25;;;;;;;6.30;3.10;;;;;;;36.51;26.60;94617.00;10451256;28;20024;-81
2021/06/08 10:45:37;;;;;;;7.03;2.88;;;;;;;37.16;26.93;94612.97;10453168;28;20024;-81
2021/06/08 10:50:38;;;;;;;6.22;2.92;;;;;;;38.56;25.83;94593.28;10449590;28;20032;-79
2021/06/08 10:55:40;;;;;;;4.50;2.63;;;;;;;38.77;25.06;94576.88;10450502;28;20020;-81
2021/06/08 11:00:43;;;;;;;3.53;2.95;;;;;;;36.77;26.44;94576.56;10448924;28;20055;-80
2021/06/08 11:05:43;;;;;;;5.28;3.28;;;;;;;32.55;34.79;94594.34;10452814;28;20024;-79
2021/06/08 11:10:51;;;;;;;5.55;3.75;;;;;;;30.67;36.20;94589.91;10451272;28;20021;-79
2021/06/08 11:15:51;;;;;;;6.15;3.20;;;;;;;30.37;34.79;94587.69;10452175;28;20112;-79
2021/06/08 11:20:58;;;;;;;4.27;3.10;;;;;;;29.72;40.84;94601.81;10451387;28;20139;-80
2021/06/08 11:25:59;;;;;;;5.23;3.60;;;;;;;28.56;46.52;94614.88;10453041;28;20501;-79
2021/06/08 11:31:01;;;;;;;7.28;2.80;;;;;;;27.11;55.49;94607.88;10452279;28;20036;-80
2021/06/08 11:36:22;;;;;;;6.40;3.60;;;;;;;26.81;63.79;94605.28;10451298;28;20139;-80
2021/06/08 11:41:23;;;;;;;6.30;3.33;;;;;;;27.05;62.77;94617.66;10451610;28;20032;-80
2021/06/08 11:46:29;;;;;;;4.78;3.30;;;;;;;25.90;74.09;94611.75;10453960;28;20029;-80
2021/06/08 11:51:35;;;;;;;4.55;3.55;;;;;;;25.05;76.66;94612.94;10452424;28;20027;-79
2021/06/08 11:56:48;;;;;;;4.93;3.03;;;;;;;24.67;87.79;94598.19;10447051;28;20104;-79
2021/06/08 12:01:56;;;;;;;5.18;3.22;;;;;;;24.60;84.61;94608.22;10453610;28;20028;-79
2021/06/08 12:07:09;;;;;;;5.45;3.15;;;;;;;23.60;85.79;94603.19;10449546;28;20033;-80
2021/06/08 12:12:16;;;;;;;5.10;3.38;;;;;;;23.00;85.20;94595.97;10450996;28;20048;-79
2021/06/08 12:17:16;;;;;;;5.60;3.58;;;;;;;22.22;92.17;94590.13;10451919;28;20039;-80
2021/06/08 12:22:38;;;;;;;6.78;3.90;;;;;;;21.80;100.00;94582.38;10451528;28;20092;-80
2021/06/08 12:27:41;;;;;;;6.88;4.05;;;;;;;21.60;98.58;94584.97;10449732;28;20068;-80
2021/06/08 12:32:43;;;;;;;7.00;5.53;;;;;;;21.32;95.25;94576.66;10451466;28;20495;-80
2021/06/08 12:37:43;;;;;;;3.90;3.50;;;;;;;21.39;96.28;94574.16;10448690;28;20017;-80
2021/06/08 12:42:44;;;;;;;5.93;4.03;;;;;;;21.45;100.00;94561.84;10445383;28;20089;-80
2021/06/08 12:47:45;;;;;;;6.07;4.18;;;;;;;21.93;97.52;94567.47;10448231;28;20017;-80
2021/06/08 12:53:04;;;;;;;5.28;4.03;;;;;;;22.15;100.00;94568.84;10450221;28;20071;-80
2021/06/08 12:58:11;;;;;;;7.45;4.40;;;;;;;22.22;100.00;94578.41;10449746;28;20396;-80
2021/06/08 13:03:13;;;;;;;9.05;4.78;;;;;;;22.49;99.27;94576.75;10448303;28;20847;-79
2021/06/08 13:08:17;;;;;;;16.98;6.47;;;;;;;23.01;91.05;94577.56;10449208;28;20052;-79
2021/06/08 13:13:17;;;;;;;7.63;5.18;;;;;;;23.49;84.63;94588.47;10448816;28;20025;-80
2021/06/08 13:18:23;;;;;;;5.73;3.87;;;;;;;23.86;68.67;94588.03;10448211;28;20507;-80
2021/06/08 13:23:28;;;;;;;6.85;4.03;;;;;;;24.23;61.61;94593.84;10446536;28;20024;-80
2021/06/08 13:28:34;;;;;;;5.72;3.78;;;;;;;24.37;53.59;94598.81;10448271;28;20041;-80
2021/06/08 13:33:38;;;;;;;8.02;3.83;;;;;;;24.53;51.46;94592.41;10447663;28;20117;-80
2021/06/08 13:38:38;;;;;;;6.32;3.45;;;;;;;24.86;52.76;94583.56;10453936;28;20044;-81
2021/06/08 13:43:46;;;;;;;9.43;4.47;;;;;;;24.36;64.19;94593.69;10456964;28;20033;-81
2021/06/08 13:48:59;;;;;;;6.38;3.75;;;;;;;23.76;66.72;94596.84;10457020;28;20024;-81
2021/06/08 13:54:05;;;;;;;6.07;4.40;;;;;;;22.76;77.01;94610.69;10457313;28;20036;-80
2021/06/08 14:04:38;;;;;;;4.28;2.90;;;;;;;21.34;87.38;94615.41;10457796;28;20769;-80
2021/06/08 14:09:48;;;;;;;8.90;3.92;;;;;;;21.24;88.69;94604.94;10455947;28;20025;-80
2021/06/08 14:14:50;;;;;;;7.53;3.65;;;;;;;21.29;83.54;94618.38;10453220;28;20503;-79
2021/06/08 14:19:52;;;;;;;4.03;3.35;;;;;;;20.89;88.28;94621.81;10452868;28;20021;-80
2021/06/08 14:24:53;;;;;;;4.93;3.05;;;;;;;21.25;86.88;94621.00;10453049;28;20116;-79
2021/06/08 14:29:53;;;;;;;3.47;2.77;;;;;;;20.65;89.43;94637.84;10452827;28;20029;-79
2021/06/08 14:34:58;;;;;;;5.30;3.10;;;;;;;20.25;90.83;94637.66;10450760;28;20028;-79
2021/06/08 14:39:58;;;;;;;4.93;3.33;;;;;;;20.00;93.53;94634.06;10451006;28;20603;-80
2021/06/08 14:44:59;;;;;;;5.57;3.47;;;;;;;20.16;94.45;94626.81;10438103;28;20044;-81
2021/06/08 16:24:59;;;;;;;5.05;4.55;;;;;;;20.77;95.26;94562.53;10646300;27;20876;-81
2021/06/08 16:30:01;;;;;;;9.07;4.27;;;;;;;20.53;98.80;94575.03;10604876;28;20110;-81
2021/06/08 16:35:02;;;;;;;6.68;3.75;;;;;;;20.27;100.00;94576.13;10603673;28;20118;-81
2021/06/08 16:40:07;;;;;;;12.02;4.60;;;;;;;20.29;97.36;94568.41;10602020;27;20115;-81
2021/06/08 16:45:08;;;;;;;8.02;4.22;;;;;;;20.28;93.10;94576.94;10602506;28;20030;-82
2021/06/08 16:50:09;;;;;;;7.22;4.63;;;;;;;20.31;96.33;94592.63;10604133;27;20022;-81
2021/06/08 16:55:10;;;;;;;10.32;5.00;;;;;;;20.16;100.00;94591.34;10604490;27;20423;-81
2021/06/08 17:00:11;;;;;;;5.28;4.78;;;;;;;19.85;100.00;94589.91;10596610;27;20030;-81
2021/06/08 17:05:12;;;;;;;11.57;7.50;;;;;;;19.67;100.00;94593.91;10561624;28;20494;-81
2021/06/08 17:10:13;;;;;;;8.70;5.72;;;;;;;19.56;100.00;94594.28;10560539;28;20016;-81
2021/06/08 17:15:14;;;;;;;8.05;5.63;;;;;;;19.40;100.00;94602.28;10561799;28;20406;-81
2021/06/08 17:20:15;;;;;;;6.55;4.75;;;;;;;19.39;100.00;94618.97;10593565;27;20012;-75
2021/06/08 17:25:19;;;;;;;10.07;5.47;;;;;;;19.37;100.00;94621.22;10553385;28;20870;-74
2021/06/08 17:30:20;;;;;;;10.45;5.85;;;;;;;19.39;100.00;94625.22;10558995;28;20042;-81
2021/06/08 17:35:20;;;;;;;6.90;5.82;;;;;;;19.41;100.00;94627.59;10574309;28;20040;-81
2021/06/08 17:40:22;;;;;;;7.07;5.30;;;;;;;19.07;100.00;94629.44;10541339;28;20073;-80
2021/06/08 17:45:23;;;;;;;8.05;5.55;;;;;;;18.90;100.00;94619.44;10548033;28;20489;-80
2021/06/08 17:50:23;;;;;;;11.73;6.15;;;;;;;19.01;100.00;94619.88;10569318;28;20076;-81
2021/06/08 17:55:24;;;;;;;9.13;5.90;;;;;;;18.87;100.00;94609.19;10574025;28;20020;-80
2021/06/08 18:00:24;;;;;;;9.88;6.72;;;;;;;18.80;100.00;94609.69;10564863;28;20493;-80
2021/06/08 18:05:25;;;;;;;13.18;7.07;;;;;;;18.64;100.00;94617.59;10572451;28;20031;-80
2021/06/08 18:10:26;;;;;;;9.13;5.95;;;;;;;18.59;100.00;94628.69;10566461;27;20054;-81
2021/06/08 18:15:26;;;;;;;9.90;6.65;;;;;;;18.49;100.00;94643.47;10551551;28;20115;-81
2021/06/08 18:26:42;;;;;;;6.95;6.00;;;;;;;18.52;100.00;94675.47;10447796;28;20084;-79
2021/06/08 18:31:43;;;;;;;16.73;11.25;;;;;;;18.59;100.00;94673.03;10451817;28;20037;-78
2021/06/08 18:36:43;;;;;;;6.83;4.97;;;;;;;18.47;100.00;94678.34;10450615;28;20391;-80
2021/06/08 18:41:44;;;;;;;8.65;5.65;;;;;;;18.62;100.00;94699.59;10419188;28;20286;-80
2021/06/08 18:46:45;;;;;;;7.82;5.68;;;;;;;18.66;100.00;94701.69;10410575;28;20037;-80
2021/06/08 18:51:45;;;;;;;11.85;5.88;;;;;;;18.71;100.00;94713.19;10393057;28;20017;-80
2021/06/08 18:56:46;;;;;;;15.60;9.47;;;;;;;18.76;100.00;94728.56;10410410;28;20506;-80
2021/06/08 19:01:47;;;;;;;12.60;7.32;;;;;;;18.44;100.00;94736.16;10410178;28;20299;-81
2021/06/08 19:06:47;;;;;;;7.90;6.47;;;;;;;18.23;100.00;94739.53;10410730;28;20125;-79
2021/06/08 19:11:48;;;;;;;10.37;7.47;;;;;;;18.23;100.00;94755.84;10410261;28;20112;-80
2021/06/08 19:16:48;;;;;;;11.40;8.35;;;;;;;18.10;100.00;94779.38;10408064;28;20021;-80
2021/06/08 19:21:49;;;;;;;9.57;6.83;;;;;;;18.00;100.00;94779.72;10390590;28;20033;-79
2021/06/08 19:26:49;;;;;;;10.30;7.95;;;;;;;17.57;100.00;94778.50;10407466;28;20060;-80
2021/06/08 19:31:50;;;;;;;10.65;7.78;;;;;;;17.29;100.00;94793.44;10645414;22;20494;-79
2021/06/08 19:36:50;;;;;;;10.30;7.67;;;;;;;16.84;100.00;94816.84;10533298;28;20110;-78
2021/06/08 19:41:50;;;;;;;12.30;8.83;;;;;;;16.12;100.00;94831.34;10496326;28;20291;-79
2021/06/08 19:46:51;;;;;;;18.93;9.60;;;;;;;15.63;100.00;94842.63;10489692;28;20020;-79
2021/06/08 19:51:51;;;;;;;17.27;10.63;;;;;;;15.27;100.00;94853.38;10489332;28;20032;-79
2021/06/08 19:56:52;;;;;;;19.70;11.70;;;;;;;15.01;100.00;94840.28;10490069;28;20024;-80
2021/06/08 20:01:52;;;;;;;17.60;11.13;;;;;;;14.79;100.00;94838.25;10490526;28;20282;-79
2021/06/08 20:06:53;;;;;;;20.42;10.68;;;;;;;14.74;100.00;94820.22;10489234;28;20111;-80
2021/06/08 20:11:54;;;;;;;17.40;11.40;;;;;;;14.66;100.00;94818.97;10490604;28;20021;-80
2021/06/08 20:16:54;;;;;;;17.27;12.55;;;;;;;14.88;100.00;94838.38;10490836;28;20024;-79
2021/06/08 20:21:54;;;;;;;14.87;10.13;;;;;;;15.06;100.00;94834.78;10490342;28;20020;-79
2021/06/08 20:26:55;;;;;;;16.03;10.53;;;;;;;15.19;100.00;94820.47;10489267;28;20775;-80
2021/06/08 20:31:55;;;;;;;14.03;10.37;;;;;;;15.23;100.00;94815.25;10489606;28;20464;-80
2021/06/08 20:36:57;;;;;;;14.10;10.30;;;;;;;15.25;100.00;94804.13;10489957;28;20275;-81
2021/06/08 20:41:58;;;;;;;15.50;11.02;;;;;;;15.02;100.00;94798.59;10524748;28;20085;-81
2021/06/08 20:46:59;;;;;;;14.40;10.00;;;;;;;14.83;100.00;94807.59;10531660;28;20031;-79
2021/06/08 20:51:59;;;;;;;12.00;8.90;;;;;;;14.59;100.00;94810.41;10530214;28;20023;-81
2021/06/08 20:57:00;;;;;;;14.90;11.07;;;;;;;14.53;100.00;94804.28;10531438;28;20019;-81
2021/06/08 21:02:01;;;;;;;17.33;10.90;;;;;;;14.44;100.00;94805.25;10538559;28;20395;-80
2021/06/08 21:07:01;;;;;;;17.55;12.27;;;;;;;14.40;100.00;94805.06;10538492;28;20024;-81
2021/06/08 21:12:02;;;;;;;19.30;12.82;;;;;;;14.33;100.00;94799.22;10537509;28;20017;-81
2021/06/08 21:17:03;;;;;;;15.45;11.00;;;;;;;14.27;100.00;94811.22;10537935;28;20024;-80
2021/06/08 21:22:04;;;;;;;23.83;12.73;;;;;;;14.18;100.00;94805.69;10537728;28;20027;-80
2021/06/08 21:27:04;;;;;;;19.08;11.43;;;;;;;14.14;100.00;94802.75;10536565;28;20036;-81
2021/06/08 21:32:06;;;;;;;17.27;10.95;;;;;;;14.19;100.00;94805.38;10536544;28;20523;-80
2021/06/08 21:37:07;;;;;;;18.83;11.60;;;;;;;14.17;100.00;94807.56;10536094;28;20031;-80
2021/06/08 21:42:10;;;;;;;14.65;10.60;;;;;;;14.05;100.00;94792.91;10536020;28;20056;-80
2021/06/08 21:47:11;;;;;;;16.48;10.05;;;;;;;14.24;100.00;94782.06;10536572;28;20047;-80
2021/06/08 21:52:12;;;;;;;14.77;9.63;;;;;;;14.25;100.00;94775.56;10535358;28;20020;-80
2021/06/08 21:57:12;;;;;;;15.27;9.75;;;;;;;14.24;100.00;94779.38;10532479;28;20822;-80
2021/06/08 22:02:12;;;;;;;15.73;9.50;;;;;;;14.10;100.00;94763.91;10534385;28;20118;-81
2021/06/08 22:07:13;;;;;;;17.50;11.20;;;;;;;14.09;100.00;94758.78;10509428;28;20024;-72
2021/06/08 22:12:13;;;;;;;16.53;10.30;;;;;;;14.11;100.00;94753.91;10491960;28;20365;-72
2021/06/08 22:17:14;;;;;;;18.55;10.85;;;;;;;14.18;100.00;94760.53;10489061;28;20425;-72
2021/06/08 22:22:17;;;;;;;15.63;11.00;;;;;;;14.22;100.00;94749.13;10489252;28;20055;-72
2021/06/08 22:27:17;;;;;;;17.42;11.50;;;;;;;14.12;100.00;94744.69;10489173;28;20039;-72
2021/06/08 22:32:17;;;;;;;13.25;8.57;;;;;;;14.08;100.00;94736.38;10489599;28;20048;-72
2021/06/08 22:37:19;;;;;;;14.18;8.93;;;;;;;14.01;100.00;94722.44;10489817;28;20020;-72
2021/06/08 22:42:20;;;;;;;11.13;8.43;;;;;;;13.92;100.00;94699.88;10504637;28;20032;-72
2021/06/08 22:47:20;;;;;;;13.57;9.03;;;;;;;13.85;100.00;94695.63;10489063;28;20035;-72
2021/06/08 22:52:20;;;;;;;13.83;10.43;;;;;;;13.80;100.00;94705.72;10489397;28;20715;-73
2021/06/08 22:57:21;;;;;;;13.90;9.43;;;;;;;13.76;100.00;94712.81;10488535;28;20432;-73
2021/06/08 23:02:21;;;;;;;12.32;8.75;;;;;;;13.77;100.00;94717.13;10488035;28;20331;-73
2021/06/08 23:07:22;;;;;;;13.63;10.00;;;;;;;13.75;100.00;94709.31;10487755;28;20024;-72
2021/06/08 23:12:24;;;;;;;16.83;9.68;;;;;;;13.71;100.00;94724.50;10487817;28;20032;-72
2021/06/08 23:17:24;;;;;;;13.80;10.88;;;;;;;13.62;100.00;94721.66;10486489;28;20493;-73
2021/06/08 23:22:26;;;;;;;14.50;10.23;;;;;;;13.49;100.00;94717.00;10487405;28;20035;-73
2021/06/08 23:27:26;;;;;;;13.82;10.43;;;;;;;13.39;100.00;94723.34;10487773;28;20024;-73
2021/06/08 23:32:27;;;;;;;13.77;9.48;;;;;;;13.34;100.00;94721.47;10487224;28;20407;-73
2021/06/08 23:37:28;;;;;;;14.27;10.60;;;;;;;13.36;100.00;94723.91;10487815;28;20479;-72
2021/06/08 23:42:28;;;;;;;13.60;10.25;;;;;;;13.20;100.00;94731.41;10487293;28;20815;-73
2021/06/08 23:47:29;;;;;;;13.33;9.73;;;;;;;13.18;100.00;94719.28;10487420;28;20039;-73
2021/06/08 23:52:30;;;;;;;14.13;10.13;;;;;;;13.05;100.00;94718.09;10490140;28;20024;-81
2021/06/08 23:57:30;;;;;;;11.82;8.25;;;;;;;12.97;100.00;94722.22;10490493;28;20782;-81
